createdAt,value
2018-11-22T12:17:14.316Z,76.00
2018-11-22T12:19:49.000Z,75.80
2018-11-22T12:22:23.650Z,75.90
2018-11-22T12:24:58.322Z,75.70
2018-11-22T12:27:32.970Z,75.70
2018-11-22T12:30:12.733Z,75.50
2018-11-22T12:32:52.903Z,75.70
2018-11-22T12:35:33.815Z,74.90
2018-11-22T12:38:14.449Z,74.90
2018-11-22T12:40:49.390Z,74.80
2018-11-22T12:43:24.686Z,74.70
2018-11-22T12:45:59.839Z,75.30
2018-11-22T12:48:34.759Z,74.60
2018-11-22T12:51:09.069Z,74.70
2018-11-22T12:53:43.939Z,74.70
2018-11-22T12:56:19.064Z,74.70
2018-11-22T12:58:54.058Z,74.70
2018-11-22T13:01:28.554Z,74.60
2018-11-22T13:04:03.256Z,74.70
2018-11-22T13:06:38.363Z,74.70
2018-11-22T13:09:13.265Z,74.80
2018-11-22T13:11:48.979Z,74.50
2018-11-22T13:14:23.610Z,74.50
2018-11-22T13:16:59.054Z,74.60
2018-11-22T13:19:33.854Z,74.50
2018-11-22T13:22:08.774Z,74.60
2018-11-22T13:24:43.993Z,74.30
2018-11-22T13:27:19.594Z,74.40
2018-11-22T13:29:54.550Z,74.40
2018-11-22T13:32:29.235Z,74.80
2018-11-22T13:35:05.011Z,74.70
2018-11-22T13:37:39.835Z,75.00
2018-11-22T13:40:14.657Z,75.00
2018-11-22T13:42:51.588Z,74.90
2018-11-22T13:45:27.351Z,75.10
2018-11-22T13:48:01.879Z,74.80
2018-11-22T13:50:41.959Z,74.70
2018-11-22T13:53:11.981Z,74.80
2018-11-22T13:55:46.605Z,74.90
2018-11-22T13:58:21.133Z,75.00
2018-11-22T14:00:55.619Z,75.10
2018-11-22T14:03:30.589Z,75.30
2018-11-22T14:06:04.976Z,75.00
2018-11-22T14:08:39.864Z,75.20
2018-11-22T14:11:15.313Z,75.30
2018-11-22T14:13:48.575Z,75.20
2018-11-22T14:16:23.106Z,75.40
2018-11-22T14:18:58.595Z,75.20
2018-11-22T14:21:33.161Z,75.10
2018-11-22T14:26:47.093Z,75.60
2018-11-22T14:29:22.814Z,75.40
2018-11-22T14:31:57.398Z,75.60
2018-11-22T14:34:31.945Z,75.50
2018-11-22T14:37:06.854Z,75.30
2018-11-22T14:39:41.173Z,75.70
2018-11-22T14:42:16.019Z,75.70
2018-11-22T14:44:50.281Z,75.60
2018-11-22T14:47:25.848Z,75.80
2018-11-22T14:50:00.795Z,75.80
2018-11-22T14:52:35.425Z,76.00
2018-11-22T14:55:10.497Z,76.50
2018-11-22T14:57:45.896Z,76.70
2018-11-22T15:00:20.040Z,77.50
2018-11-22T15:02:54.622Z,76.70
2018-11-22T15:05:29.062Z,77.10
2018-11-22T15:08:04.090Z,77.20
2018-11-22T15:10:39.084Z,77.40
2018-11-22T15:13:13.837Z,77.40
2018-11-22T15:15:48.043Z,77.50
2018-11-22T15:18:22.505Z,77.60
2018-11-22T15:21:01.060Z,78.00
2018-11-22T15:23:31.393Z,78.20
2018-11-22T15:26:05.785Z,78.30
2018-11-22T15:28:40.373Z,78.70
2018-11-22T15:31:14.962Z,79.00
2018-11-22T15:33:49.390Z,79.80
2018-11-22T15:36:23.895Z,80.00
2018-11-22T15:38:58.369Z,79.40
2018-11-22T15:41:32.977Z,79.90
2018-11-22T15:44:08.086Z,80.10
2018-11-22T15:46:42.298Z,80.20
2018-11-22T15:49:16.951Z,80.40
2018-11-22T15:51:51.287Z,80.80
2018-11-22T15:54:26.715Z,80.90
2018-11-22T15:57:01.150Z,81.20
2018-11-22T15:59:35.991Z,81.60
2018-11-22T16:02:10.113Z,81.70
2018-11-22T16:04:44.918Z,81.80
2018-11-22T16:07:19.297Z,82.40
2018-11-22T16:09:53.881Z,82.60
2018-11-22T16:12:28.588Z,82.70
2018-11-22T16:15:03.390Z,83.10
2018-11-22T16:17:37.998Z,83.00
2018-11-22T16:20:12.251Z,83.40
2018-11-22T16:22:47.666Z,83.50
2018-11-22T16:25:22.486Z,83.50
2018-11-22T16:27:56.920Z,83.60
2018-11-22T16:30:32.065Z,83.70
2018-11-22T16:33:07.364Z,84.00
2018-11-22T16:35:42.420Z,84.10
2018-11-22T16:38:17.025Z,83.90
2018-11-22T16:40:51.701Z,84.10
2018-11-22T16:43:26.591Z,84.10
2018-11-22T16:46:00.858Z,84.30
2018-11-22T16:48:35.246Z,84.50
2018-11-22T16:51:09.687Z,84.50
2018-11-22T16:53:44.470Z,84.70
2018-11-22T16:56:18.741Z,85.10
2018-11-22T16:58:53.738Z,85.20
2018-11-22T17:01:28.061Z,85.30
2018-11-22T17:04:02.623Z,85.40
2018-11-22T17:06:37.735Z,85.60
2018-11-22T17:09:12.671Z,85.90
2018-11-22T17:11:47.228Z,86.20
2018-11-22T17:14:21.713Z,86.50
2018-11-22T17:16:56.301Z,86.70
2018-11-22T17:19:30.742Z,87.00
2018-11-22T17:22:05.488Z,87.10
2018-11-22T17:24:40.031Z,87.30
2018-11-22T17:27:14.926Z,87.60
2018-11-22T17:29:49.162Z,88.00
2018-11-22T17:32:24.821Z,87.90
2018-11-22T17:34:59.690Z,87.40
2018-11-22T17:37:33.958Z,88.20
2018-11-22T17:40:14.574Z,88.40
2018-11-22T17:42:48.626Z,89.00
2018-11-22T17:45:25.409Z,89.20
2018-11-22T17:47:59.782Z,90.00
2018-11-22T17:50:36.625Z,90.00
2018-11-22T17:53:11.995Z,90.00
2018-11-22T17:55:46.824Z,90.00
2018-11-22T17:58:21.007Z,90.00
2018-11-22T18:00:56.011Z,90.00
2018-11-22T18:03:30.405Z,90.00
2018-11-22T18:06:05.010Z,89.70
2018-11-22T18:08:39.796Z,89.70
2018-11-22T18:11:14.071Z,89.70
2018-11-22T18:13:48.752Z,89.80
2018-11-22T18:16:23.385Z,89.80
2018-11-22T18:18:59.238Z,90.00
2018-11-22T18:21:33.614Z,89.90
2018-11-22T18:24:09.088Z,89.90
2018-11-22T18:26:43.859Z,90.00
2018-11-22T18:29:18.970Z,90.00
2018-11-22T18:31:54.609Z,90.00
2018-11-22T18:34:29.349Z,90.00
2018-11-22T18:37:04.339Z,90.00
2018-11-22T18:39:38.731Z,90.00
2018-11-22T18:42:12.875Z,89.70
2018-11-22T18:44:48.210Z,90.00
2018-11-22T18:47:23.121Z,90.00
2018-11-22T18:49:57.669Z,89.70
2018-11-22T18:52:32.458Z,90.10
2018-11-22T18:55:07.846Z,90.00
2018-11-22T18:57:42.794Z,90.00
2018-11-22T19:00:20.919Z,90.00
2018-11-22T19:02:58.611Z,90.00
2018-11-22T19:05:33.675Z,90.00
2018-11-22T19:08:07.881Z,89.90
2018-11-22T19:10:43.314Z,90.00
2018-11-22T19:13:18.116Z,90.00
2018-11-22T19:15:53.152Z,90.00
2018-11-22T19:18:27.280Z,90.10
2018-11-22T19:21:01.727Z,90.20
2018-11-22T19:23:36.423Z,90.10
2018-11-22T19:26:10.930Z,90.20
2018-11-22T19:28:45.645Z,90.20
2018-11-22T19:31:20.576Z,90.20
2018-11-22T19:33:54.779Z,90.20
2018-11-22T19:36:29.243Z,90.30
2018-11-22T19:39:05.549Z,90.10
2018-11-22T19:41:40.338Z,90.20
2018-11-22T19:44:14.943Z,90.20
2018-11-22T19:46:49.475Z,90.10
2018-11-22T19:49:24.389Z,90.00
2018-11-22T19:51:58.714Z,90.00
2018-11-22T19:54:33.333Z,90.00
2018-11-22T19:57:08.042Z,90.00
2018-11-22T19:59:42.993Z,90.10
2018-11-22T20:02:17.787Z,90.00
2018-11-22T20:04:52.948Z,90.00
2018-11-22T20:07:27.802Z,90.00
2018-11-22T20:10:02.580Z,90.00
2018-11-22T20:12:36.802Z,90.10
2018-11-22T20:15:12.062Z,90.10
2018-11-22T20:17:48.284Z,90.10
2018-11-22T20:20:23.342Z,90.20
2018-11-22T20:22:58.468Z,90.20
2018-11-22T20:25:32.997Z,90.30
2018-11-22T20:28:07.409Z,90.30
2018-11-22T20:30:43.276Z,90.40
2018-11-22T20:33:17.485Z,90.30
2018-11-22T20:35:52.034Z,90.30
2018-11-22T20:38:26.776Z,90.30
2018-11-22T20:41:01.321Z,90.30
2018-11-22T20:43:35.912Z,90.40
2018-11-22T20:46:10.762Z,90.30
2018-11-22T20:48:45.110Z,90.40
2018-11-22T20:51:20.317Z,90.50
2018-11-22T20:53:55.453Z,90.40
2018-11-22T20:56:30.460Z,90.50
2018-11-22T20:59:05.309Z,90.50
2018-11-22T21:01:39.789Z,90.50
2018-11-22T21:04:14.351Z,90.40
2018-11-22T21:06:49.262Z,90.50
2018-11-22T21:09:23.866Z,90.70
2018-11-22T21:11:58.651Z,90.40
2018-11-22T21:14:33.155Z,90.40
2018-11-22T21:17:07.781Z,90.30
2018-11-22T21:19:42.234Z,90.40
2018-11-22T21:22:16.885Z,90.40
2018-11-22T21:24:51.681Z,90.40
2018-11-22T21:27:26.003Z,90.70
2018-11-22T21:30:00.330Z,90.50
2018-11-22T21:32:35.130Z,90.50
2018-11-22T21:35:09.759Z,90.50
2018-11-22T21:37:44.946Z,90.50
2018-11-22T21:40:20.526Z,90.40
2018-11-22T21:42:55.318Z,90.10
2018-11-22T21:45:30.956Z,90.10
2018-11-22T21:48:06.494Z,90.10
2018-11-22T21:50:41.411Z,90.10
2018-11-22T21:53:17.092Z,90.10
2018-11-22T21:55:53.358Z,90.40
2018-11-22T21:58:31.621Z,90.20
2018-11-22T22:01:06.619Z,90.30
2018-11-22T22:03:41.457Z,90.40
2018-11-22T22:06:16.393Z,90.40
2018-11-22T22:08:51.552Z,90.40
2018-11-22T22:11:25.897Z,90.50
2018-11-22T22:14:00.396Z,90.40
2018-11-22T22:16:35.054Z,90.40
2018-11-22T22:19:09.773Z,90.40
2018-11-22T22:21:44.334Z,90.40
2018-11-22T22:24:19.268Z,90.40
2018-11-22T22:26:53.986Z,90.40
2018-11-22T22:29:29.173Z,90.30
2018-11-22T22:32:03.844Z,90.50
2018-11-22T22:34:38.439Z,90.50
2018-11-22T22:37:12.898Z,90.70
2018-11-22T22:39:47.362Z,90.60
2018-11-22T22:42:21.933Z,90.60
2018-11-22T22:44:56.498Z,90.50
2018-11-22T22:47:31.134Z,90.50
2018-11-22T22:50:12.048Z,90.50
2018-11-22T22:52:47.037Z,90.60
2018-11-22T22:55:21.781Z,90.60
2018-11-22T22:57:56.553Z,90.60
2018-11-22T23:00:36.730Z,90.60
2018-11-22T23:03:11.578Z,90.60
2018-11-22T23:05:46.334Z,90.50
2018-11-22T23:08:20.932Z,90.40
2018-11-22T23:10:55.678Z,90.50
2018-11-22T23:13:30.264Z,90.50
2018-11-22T23:16:04.993Z,90.40
2018-11-22T23:18:39.484Z,90.40
2018-11-22T23:21:14.101Z,90.40
2018-11-22T23:23:48.692Z,90.30
2018-11-22T23:26:23.166Z,90.20
2018-11-22T23:28:57.846Z,90.20
2018-11-22T23:31:32.438Z,90.30
2018-11-22T23:34:07.019Z,90.30
2018-11-22T23:36:41.589Z,90.30
2018-11-22T23:39:16.147Z,90.30
2018-11-22T23:41:51.552Z,90.30
2018-11-22T23:44:27.198Z,90.30
2018-11-22T23:47:01.726Z,90.30
2018-11-22T23:49:36.316Z,90.50
2018-11-22T23:52:10.839Z,90.40
2018-11-22T23:54:45.448Z,90.40
2018-11-22T23:57:20.072Z,90.40
2018-11-22T23:59:54.799Z,90.30
